Dog Valley, California Weather observations

Data are for 10 minute period ending at time listed.
 Day   Time    Ave.   Ave.  Ave.  Vector   Max.   Total    Solar   
  of    of     Air    Rel.  Wind   Wind    Wind  Precip.   Rad.    
Year   Day     Temp.  Hum.  Speed  Dir.    Gust                    
2016   (PST)    F      %     mph   deg.    mph     in.     W/m2    
------------------------------------------------------------------- 
 181   14:00   91.0    14    3.0   293     13.0    5.22     974  
 181   15:00   90.0    13    3.0   246     11.0    5.22     890  
 181   16:00   88.0    14    2.0   217      9.0    5.22     738  
 181   17:00   86.0    16    2.0   264     10.0    5.22     536  
 181   18:00   78.0    15    3.0   287      9.0    5.22     204  
 181   19:00   72.0    17    1.0   310      9.0    5.22      31  
 181   20:00   60.0    30    1.0   278      6.0    5.22       6  
 181   21:00   54.0    39    0.0   274      3.0    5.22       0  
 181   22:00   51.0    45    1.0   285      3.0    5.22       0  
 181   23:00   48.0    44    0.0   281      3.0    5.22       0  
 182    0:00   45.0    43    0.0   270      2.0    5.22       0  
 182    1:00   43.0    38    0.0   247      2.0    5.22       0  
 182    2:00   42.0    41    0.0   244      0.0    5.22       0  
 182    3:00   41.0    46    0.0   244      0.0    5.22       0  
 182    4:00   43.0    52    0.0   274      2.0    5.22       0  
 182    5:00   42.0    56    0.0   274      1.0    5.22       1  
 182    6:00   45.0    68    0.0   274      0.0    5.22      32  
 182    7:00   57.0    52    0.0   126      2.0    5.22     127  
 182    8:00   69.0    38    0.0   120      3.0    5.22     356  
 182    9:00   78.0    22    1.0   135      4.0    5.22     486  
 182   10:00   83.0    19    1.0   150      5.0    5.22     825  
 182   11:00   87.0    18    2.0   105      7.0    5.22     948  
 182   12:00   87.0    16    2.0   152      6.0    5.22    1008  
 182   13:00   89.0    13    2.0   237     10.0    5.22    1021  

Return to Dog Valley, California graphs page.


Western Regional Climate Center,wrcc@dri.edu